createdAt,value
2023-03-15T00:02:10.547Z,7.28
2023-03-15T00:07:32.467Z,7.25
2023-03-15T00:12:54.638Z,7.50
2023-03-15T00:18:18.158Z,7.38
2023-03-15T00:23:40.075Z,7.05
2023-03-15T00:29:01.966Z,7.03
2023-03-15T00:34:23.919Z,7.45
2023-03-15T00:39:46.596Z,7.47
2023-03-15T00:45:08.789Z,7.00
2023-03-15T00:50:30.685Z,7.40
2023-03-15T00:55:52.538Z,2.15
2023-03-15T01:01:21.921Z,1.20
2023-03-15T01:06:43.814Z,1.00
2023-03-15T01:12:05.988Z,0.77
2023-03-15T01:17:28.090Z,0.50
2023-03-15T01:22:50.066Z,0.80
2023-03-15T01:28:11.949Z,0.73
2023-03-15T01:33:33.945Z,0.65
2023-03-15T01:38:55.924Z,1.13
2023-03-15T01:44:19.427Z,1.08
2023-03-15T01:49:42.827Z,1.38
2023-03-15T01:55:13.785Z,1.90
2023-03-15T02:00:36.943Z,1.70
2023-03-15T02:06:03.896Z,1.23
2023-03-15T02:11:27.468Z,1.65
2023-03-15T02:16:49.682Z,1.92
2023-03-15T02:22:43.866Z,1.20
2023-03-15T02:28:07.967Z,1.10
2023-03-15T02:33:43.039Z,1.90
2023-03-15T02:39:19.913Z,1.60
2023-03-15T02:44:44.885Z,1.40
2023-03-15T02:50:07.172Z,1.33
2023-03-15T02:55:30.120Z,1.23
2023-03-15T03:00:53.230Z,1.02
2023-03-15T03:06:17.500Z,0.90
2023-03-15T03:11:39.381Z,1.20
2023-03-15T03:17:01.282Z,0.80
2023-03-15T03:22:23.645Z,0.60
2023-03-15T03:27:45.534Z,0.98
2023-03-15T03:33:07.377Z,0.70
2023-03-15T03:38:29.286Z,1.02
2023-03-15T03:43:51.210Z,1.20
2023-03-15T03:49:13.132Z,1.10
2023-03-15T03:54:34.966Z,1.20
2023-03-15T03:59:56.843Z,1.08
2023-03-15T04:05:18.736Z,1.48
2023-03-15T04:10:40.615Z,1.52
2023-03-15T04:16:02.495Z,1.50
2023-03-15T04:21:24.429Z,2.00
2023-03-15T04:26:46.304Z,2.00
2023-03-15T04:32:08.667Z,2.20
2023-03-15T04:37:30.904Z,1.83
2023-03-15T04:42:54.272Z,1.95
2023-03-15T04:48:16.137Z,2.10
2023-03-15T04:53:38.030Z,2.28
2023-03-15T04:58:59.892Z,2.38
2023-03-15T05:04:21.788Z,2.50
2023-03-15T05:09:43.685Z,2.08
2023-03-15T05:15:06.177Z,2.30
2023-03-15T05:20:28.098Z,2.72
2023-03-15T05:25:54.991Z,2.55
2023-03-15T05:31:16.869Z,2.10
2023-03-15T05:36:39.066Z,2.17
2023-03-15T05:42:01.314Z,2.58
2023-03-15T05:47:23.722Z,3.13
2023-03-15T05:52:45.629Z,2.40
2023-03-15T05:58:07.536Z,2.83
2023-03-15T06:03:30.759Z,3.28
2023-03-15T06:08:52.745Z,2.75
2023-03-15T06:14:14.594Z,3.30
2023-03-15T06:19:37.951Z,3.15
2023-03-15T06:24:59.958Z,3.38
2023-03-15T06:30:21.934Z,3.35
2023-03-15T06:35:43.878Z,3.22
2023-03-15T06:41:05.735Z,3.22
2023-03-15T06:46:27.706Z,2.55
2023-03-15T06:51:49.562Z,2.80
2023-03-15T06:57:11.546Z,2.58
2023-03-15T07:02:33.450Z,3.45
2023-03-15T07:07:55.324Z,3.50
2023-03-15T07:13:18.377Z,3.88
2023-03-15T07:18:40.313Z,4.07
2023-03-15T07:24:02.180Z,4.43
2023-03-15T07:29:24.674Z,4.35
2023-03-15T07:34:46.586Z,4.05
2023-03-15T07:40:09.257Z,4.28
2023-03-15T07:45:31.138Z,4.88
2023-03-15T07:50:52.986Z,4.82
2023-03-15T07:56:15.076Z,4.80
2023-03-15T08:01:36.974Z,4.82
2023-03-15T08:06:58.859Z,6.05
2023-03-15T08:12:20.748Z,5.80
2023-03-15T08:17:43.218Z,5.63
2023-03-15T08:23:06.167Z,6.15
2023-03-15T08:28:27.993Z,5.68
2023-03-15T08:33:49.832Z,5.18
2023-03-15T08:39:11.683Z,5.50
2023-03-15T08:44:35.853Z,5.90
2023-03-15T08:49:58.224Z,6.00
2023-03-15T08:55:20.289Z,6.03
2023-03-15T09:00:42.178Z,4.90
2023-03-15T09:06:04.128Z,5.18
2023-03-15T09:11:25.990Z,5.35
2023-03-15T09:16:47.982Z,4.20
2023-03-15T09:22:16.785Z,4.00
2023-03-15T09:27:46.066Z,4.20
2023-03-15T09:33:08.611Z,3.80
2023-03-15T09:38:30.481Z,3.65
2023-03-15T09:44:12.375Z,3.00
2023-03-15T09:49:41.177Z,4.20
2023-03-15T09:55:14.761Z,2.80
2023-03-15T10:00:38.599Z,2.42
2023-03-15T10:06:05.958Z,2.40
2023-03-15T10:11:50.002Z,1.95
2023-03-15T10:17:14.080Z,2.95
2023-03-15T10:22:45.165Z,3.50
2023-03-15T10:28:31.221Z,3.10
2023-03-15T10:33:55.557Z,3.47
2023-03-15T10:39:17.525Z,3.50
2023-03-15T10:44:39.396Z,2.97
2023-03-15T10:50:01.277Z,3.00
2023-03-15T10:55:33.627Z,3.50
2023-03-15T11:01:06.881Z,3.60
2023-03-15T11:06:29.383Z,4.30
2023-03-15T11:12:00.096Z,4.35
2023-03-15T11:17:26.460Z,3.60
2023-03-15T11:22:48.624Z,3.83
2023-03-15T11:28:19.843Z,3.85
2023-03-15T11:34:08.956Z,4.75
2023-03-15T11:39:43.279Z,3.90
2023-03-15T11:45:16.373Z,3.45
2023-03-15T11:50:40.176Z,3.80
2023-03-15T11:56:22.998Z,3.58
2023-03-15T12:01:58.343Z,5.15
2023-03-15T12:07:20.142Z,4.57
2023-03-15T12:12:46.132Z,3.78
2023-03-15T12:18:16.182Z,4.73
2023-03-15T12:23:45.615Z,4.13
2023-03-15T12:29:14.779Z,4.50
2023-03-15T12:34:42.814Z,4.00
2023-03-15T12:40:16.585Z,4.60
2023-03-15T12:45:43.742Z,4.43
2023-03-15T12:51:09.082Z,4.32
2023-03-15T12:56:38.757Z,3.50
2023-03-15T13:02:02.857Z,4.15
2023-03-15T13:07:50.294Z,3.67
2023-03-15T13:13:35.922Z,4.93
2023-03-15T13:19:26.707Z,4.05
2023-03-15T13:25:00.811Z,3.60
2023-03-15T13:30:31.799Z,3.60
2023-03-15T13:36:02.355Z,2.85
2023-03-15T13:41:29.629Z,2.55
2023-03-15T13:46:52.943Z,3.30
2023-03-15T13:52:14.905Z,3.38
2023-03-15T13:57:37.035Z,3.78
2023-03-15T14:03:05.095Z,3.45
2023-03-15T14:08:35.147Z,2.67
2023-03-15T14:14:00.428Z,2.63
2023-03-15T14:19:26.594Z,2.15
2023-03-15T14:24:51.460Z,2.65
2023-03-15T14:30:25.074Z,3.85
2023-03-15T14:35:46.941Z,3.80
2023-03-15T14:41:32.520Z,4.00
2023-03-15T14:46:54.887Z,4.90
2023-03-15T14:52:16.874Z,4.78
2023-03-15T14:57:38.839Z,4.22
2023-03-15T15:03:01.201Z,4.18
2023-03-15T15:08:23.276Z,3.70
2023-03-15T15:13:45.184Z,2.60
2023-03-15T15:19:07.898Z,3.35
2023-03-15T15:24:30.919Z,4.05
2023-03-15T15:29:52.821Z,3.20
2023-03-15T15:35:17.023Z,3.75
2023-03-15T15:40:40.094Z,2.78
2023-03-15T15:46:02.055Z,3.80
2023-03-15T15:51:30.510Z,2.85
2023-03-15T15:56:55.883Z,4.22
2023-03-15T16:02:17.913Z,4.25
2023-03-15T16:07:39.839Z,3.22
2023-03-15T16:13:04.113Z,4.10
2023-03-15T16:18:25.938Z,5.55
2023-03-15T16:23:55.218Z,4.90
2023-03-15T16:29:23.470Z,3.55
2023-03-15T16:34:45.446Z,3.42
2023-03-15T16:40:25.305Z,3.65
2023-03-15T16:45:47.196Z,5.45
2023-03-15T16:51:12.928Z,4.22
2023-03-15T16:56:36.348Z,3.93
2023-03-15T17:01:58.241Z,4.40
2023-03-15T17:07:28.290Z,5.00
2023-03-15T17:12:55.039Z,4.03
2023-03-15T17:18:19.142Z,4.65
2023-03-15T17:23:41.840Z,5.00
2023-03-15T17:29:04.214Z,5.25
2023-03-15T17:34:26.117Z,4.60
2023-03-15T17:39:48.136Z,5.50
2023-03-15T17:45:21.614Z,5.95
2023-03-15T17:50:44.522Z,8.55
2023-03-15T17:56:06.716Z,6.07
2023-03-15T18:01:29.179Z,6.80
2023-03-15T18:06:51.071Z,6.35
2023-03-15T18:12:15.240Z,6.53
2023-03-15T18:17:37.459Z,6.40
2023-03-15T18:22:59.343Z,6.03
2023-03-15T18:28:21.223Z,6.50
2023-03-15T18:33:44.084Z,6.30
2023-03-15T18:39:06.016Z,8.13
2023-03-15T18:44:27.906Z,6.55
2023-03-15T18:49:53.182Z,6.82
2023-03-15T18:55:19.252Z,7.40
2023-03-15T19:00:41.233Z,7.20
2023-03-15T19:06:08.798Z,6.35
2023-03-15T19:11:31.003Z,6.47
2023-03-15T19:16:53.027Z,6.68
2023-03-15T19:22:14.955Z,7.50
2023-03-15T19:27:37.321Z,6.30
2023-03-15T19:32:59.443Z,6.43
2023-03-15T19:38:21.460Z,6.15
2023-03-15T19:43:43.362Z,6.57
2023-03-15T19:49:05.366Z,6.68
2023-03-15T19:54:27.308Z,8.65
2023-03-15T19:59:49.307Z,6.88
2023-03-15T20:05:13.670Z,6.45
2023-03-15T20:10:35.964Z,7.05
2023-03-15T20:15:57.912Z,7.25
2023-03-15T20:21:19.980Z,7.18
2023-03-15T20:26:41.884Z,7.43
2023-03-15T20:32:04.434Z,8.13
2023-03-15T20:37:28.297Z,8.38
2023-03-15T20:42:50.144Z,7.53
2023-03-15T20:48:12.066Z,8.77
2023-03-15T20:53:35.746Z,7.95
2023-03-15T20:58:57.647Z,7.78
2023-03-15T21:04:19.535Z,8.68
2023-03-15T21:09:41.510Z,7.45
2023-03-15T21:15:03.771Z,6.80
2023-03-15T21:20:25.930Z,7.30
2023-03-15T21:25:54.081Z,7.65
2023-03-15T21:31:16.373Z,7.80
2023-03-15T21:36:38.331Z,8.25
2023-03-15T21:42:00.817Z,8.82
2023-03-15T21:47:22.745Z,8.70
2023-03-15T21:52:44.659Z,10.45
2023-03-15T21:58:06.533Z,9.77
2023-03-15T22:03:28.567Z,9.32
2023-03-15T22:08:50.534Z,10.13
2023-03-15T22:14:12.499Z,11.18
2023-03-15T22:19:34.372Z,10.13
2023-03-15T22:24:56.242Z,11.45
2023-03-15T22:30:18.350Z,10.57
2023-03-15T22:35:40.371Z,9.77
2023-03-15T22:41:07.764Z,9.55
2023-03-15T22:46:29.779Z,10.20
2023-03-15T22:51:51.684Z,11.98
2023-03-15T22:57:13.605Z,12.50
2023-03-15T23:02:35.553Z,11.65
2023-03-15T23:07:57.519Z,13.02
2023-03-15T23:13:19.459Z,13.93
2023-03-15T23:18:42.153Z,13.43
2023-03-15T23:24:04.287Z,13.48
2023-03-15T23:29:26.279Z,15.48
2023-03-15T23:34:48.233Z,14.48
2023-03-15T23:40:11.123Z,14.88
2023-03-15T23:45:32.995Z,14.82
2023-03-15T23:50:56.518Z,15.45
2023-03-15T23:56:18.367Z,15.13
